Time;durP1;ratioP1;P1;durP2;ratioP2;P2;SDS_P1;SDS_P2;PMS_P1;PMS_P2;Temp;Humidity;BMP_temperature;BMP_pressure;BME280_temperature;BME280_humidity;BME280_pressure;Samples;Min_cycle;Max_cycle;Signal;HPM_P1;HPM_P2
2021/11/06 00:01:00;;;;;;;;;7.33;7.33;;;;;17.75;45.03;102800.06;4977729;28;45328;-68
2021/11/06 00:03:26;;;;;;;;;10.00;8.00;;;;;17.76;45.09;102801.88;4978009;28;45776;-62
2021/11/06 00:05:51;;;;;;;;;14.00;9.00;;;;;17.75;45.27;102797.41;4978064;28;45462;-68
2021/11/06 00:08:17;;;;;;;;;10.00;9.00;;;;;17.74;45.38;102795.63;4977849;28;46391;-67
2021/11/06 00:10:42;;;;;;;;;9.67;8.00;;;;;17.74;45.25;102798.28;4978133;28;45392;-66
2021/11/06 00:13:08;;;;;;;;;9.00;9.00;;;;;17.74;44.98;102808.94;4978171;28;45265;-64
2021/11/06 00:15:34;;;;;;;;;8.67;8.67;;;;;17.75;45.24;102802.72;4977961;28;45273;-66
2021/11/06 00:17:59;;;;;;;;;7.00;5.00;;;;;17.75;45.20;102808.03;4977619;28;46310;-66
2021/11/06 00:20:24;;;;;;;;;9.00;9.00;;;;;17.74;45.13;102822.22;4977826;28;45284;-66
2021/11/06 00:22:50;;;;;;;;;7.67;7.67;;;;;17.73;45.06;102812.44;4976426;28;45371;-67
2021/11/06 00:25:15;;;;;;;;;10.67;9.67;;;;;17.73;45.15;102823.06;4978243;28;45355;-70
2021/11/06 00:27:44;;;;;;;;;8.00;8.00;;;;;17.73;45.36;102823.97;4977593;28;46012;-69
2021/11/06 00:30:10;;;;;;;;;11.00;9.00;;;;;17.74;45.25;102824.88;4977381;28;45403;-64
2021/11/06 00:32:37;;;;;;;;;10.00;7.67;;;;;17.73;44.79;102823.97;4977406;28;45351;-67
2021/11/06 00:35:03;;;;;;;;;10.67;8.33;;;;;17.73;45.06;102812.44;4977812;28;45327;-70
2021/11/06 00:37:28;;;;;;;;;9.67;9.00;;;;;17.73;45.12;102817.75;4977386;28;46155;-68
2021/11/06 00:39:54;;;;;;;;;10.67;8.00;;;;;17.71;45.30;102808.00;4977426;28;45320;-65
2021/11/06 00:42:20;;;;;;;;;8.67;8.67;;;;;17.71;45.12;102804.44;4977750;28;45223;-70
2021/11/06 00:44:45;;;;;;;;;11.00;9.00;;;;;17.71;45.16;102804.44;4977751;28;45402;-66
2021/11/06 00:47:11;;;;;;;;;6.67;6.67;;;;;17.72;45.26;102800.91;4977207;28;46118;-66
2021/11/06 00:49:37;;;;;;;;;8.33;8.33;;;;;17.72;45.25;102800.91;4977135;28;45400;-70
2021/11/06 00:52:04;;;;;;;;;10.67;10.00;;;;;17.71;45.14;102800.00;4977503;28;45337;-70
2021/11/06 00:54:29;;;;;;;;;12.67;10.33;;;;;17.70;45.08;102798.19;4977501;28;45517;-63
2021/11/06 00:56:55;;;;;;;;;10.00;9.00;;;;;17.70;45.25;102797.34;4977008;28;46118;-70
2021/11/06 00:59:20;;;;;;;;;7.00;7.00;;;;;17.71;45.05;102793.78;4977288;28;45347;-67
2021/11/06 01:01:45;;;;;;;;;9.00;9.00;;;;;17.71;45.14;102788.47;4977145;28;45418;-69
2021/11/06 01:04:11;;;;;;;;;9.67;9.00;;;;;17.71;45.31;102789.38;4977185;28;45368;-61
2021/11/06 01:06:36;;;;;;;;;9.67;9.67;;;;;17.69;45.04;102775.16;4977052;28;46265;-66
2021/11/06 01:09:02;;;;;;;;;8.00;8.00;;;;;17.70;45.19;102778.72;4976761;28;45265;-67
2021/11/06 01:11:28;;;;;;;;;11.00;9.00;;;;;17.70;45.21;102782.25;4977177;28;45318;-66
2021/11/06 01:13:53;;;;;;;;;10.33;8.33;;;;;17.70;45.25;102778.72;4977193;28;45175;-69
2021/11/06 01:16:19;;;;;;;;;8.33;8.33;;;;;17.70;45.00;102779.59;4976961;28;47212;-65
2021/11/06 01:18:44;;;;;;;;;9.00;9.00;;;;;17.69;44.88;102785.78;4979976;28;45424;-60
2021/11/06 01:21:09;;;;;;;;;10.67;9.00;;;;;17.70;45.11;102784.91;4980502;28;45327;-69
2021/11/06 01:23:35;;;;;;;;;9.67;9.33;;;;;17.70;45.47;102784.91;4980686;28;45433;-68
2021/11/06 01:26:02;;;;;;;;;8.33;8.33;;;;;17.70;44.98;102784.91;4980226;28;46252;-67
2021/11/06 01:28:28;;;;;;;;;12.33;8.67;;;;;17.70;45.03;102790.22;4980464;28;45504;-68
2021/11/06 01:30:53;;;;;;;;;8.00;8.00;;;;;17.68;45.00;102778.66;4980402;28;45381;-69
2021/11/06 01:33:19;;;;;;;;;12.00;9.33;;;;;17.69;44.99;102791.09;4980636;28;45393;-60
2021/11/06 01:35:44;;;;;;;;;7.33;6.33;;;;;17.70;44.95;102784.03;4980130;28;47004;-66
2021/11/06 01:38:09;;;;;;;;;10.00;8.33;;;;;17.69;45.11;102783.13;4980012;28;45324;-64
2021/11/06 01:40:35;;;;;;;;;7.00;7.00;;;;;17.67;45.00;102779.53;4980448;28;45412;-61
2021/11/06 01:43:00;;;;;;;;;8.00;7.00;;;;;17.68;45.22;102780.44;4980451;28;45378;-60
2021/11/06 01:45:26;;;;;;;;;10.00;8.00;;;;;17.67;45.22;102776.88;4980193;28;46067;-65
2021/11/06 01:47:52;;;;;;;;;7.67;7.33;;;;;17.68;45.05;102778.66;4979994;28;45499;-69
2021/11/06 01:50:20;;;;;;;;;9.67;9.67;;;;;17.69;44.91;102777.81;4979940;28;45225;-60
2021/11/06 01:52:45;;;;;;;;;10.00;7.00;;;;;17.67;44.94;102775.97;4980386;28;45360;-70
2021/11/06 01:55:11;;;;;;;;;10.00;9.00;;;;;17.68;45.17;102777.78;4979713;28;46946;-68
2021/11/06 01:57:38;;;;;;;;;9.67;9.67;;;;;17.67;44.98;102781.28;4980056;28;46008;-68
2021/11/06 02:00:09;;;;;;;;;9.00;7.67;;;;;17.67;45.21;102776.88;4979993;28;45457;-68
2021/11/06 02:02:35;;;;;;;;;8.00;8.00;;;;;17.67;45.12;102770.66;4979989;28;45808;-66
2021/11/06 02:05:01;;;;;;;;;8.00;7.67;;;;;17.66;45.22;102775.06;4979490;28;46902;-60
2021/11/06 02:07:26;;;;;;;;;8.00;8.00;;;;;17.66;45.07;102774.19;4979921;28;45213;-63
2021/11/06 02:09:51;;;;;;;;;10.00;8.67;;;;;17.66;45.06;102775.06;4979718;28;45534;-69
2021/11/06 02:12:17;;;;;;;;;9.33;8.00;;;;;17.66;45.09;102775.06;4980065;28;45328;-64
2021/11/06 02:14:42;;;;;;;;;11.33;11.00;;;;;17.66;45.09;102785.72;4979703;28;46210;-64
2021/11/06 02:17:07;;;;;;;;;7.00;6.00;;;;;17.65;44.88;102783.94;4979611;28;45350;-68
2021/11/06 02:19:33;;;;;;;;;8.00;8.00;;;;;17.66;44.99;102784.84;4979750;28;45608;-68
2021/11/06 02:22:00;;;;;;;;;5.33;5.33;;;;;17.66;44.87;102783.06;4979930;28;45410;-68
2021/11/06 02:24:27;;;;;;;;;8.00;8.00;;;;;17.66;44.93;102779.53;4979385;28;46252;-63
2021/11/06 02:26:53;;;;;;;;;9.00;8.00;;;;;17.66;44.94;102785.72;4979668;28;45403;-67
2021/11/06 02:29:18;;;;;;;;;8.00;7.33;;;;;17.66;45.14;102788.38;4979203;28;45304;-68
2021/11/06 02:31:44;;;;;;;;;9.33;7.67;;;;;17.66;44.98;102775.06;4979937;28;45396;-68
2021/11/06 02:34:10;;;;;;;;;7.00;7.00;;;;;17.66;44.90;102780.38;4979319;28;46976;-69
2021/11/06 02:36:37;;;;;;;;;10.33;9.33;;;;;17.66;45.08;102779.53;4979176;28;45450;-67
2021/11/06 02:39:04;;;;;;;;;7.00;7.00;;;;;17.66;45.06;102768.88;4979372;28;45495;-64
2021/11/06 02:41:30;;;;;;;;;8.00;8.00;;;;;17.65;45.11;102773.28;4979447;28;45569;-65
2021/11/06 02:43:59;;;;;;;;;10.00;8.00;;;;;17.64;44.88;102766.16;4979155;28;46226;-67
2021/11/06 02:46:24;;;;;;;;;6.33;6.33;;;;;17.63;45.02;102768.81;4979249;28;45228;-69
2021/11/06 02:48:50;;;;;;;;;8.33;8.00;;;;;17.64;44.77;102759.97;4978991;28;45384;-62
2021/11/06 02:51:15;;;;;;;;;10.00;9.00;;;;;17.64;44.80;102758.19;4979342;28;45304;-65
2021/11/06 02:53:41;;;;;;;;;10.33;8.33;;;;;17.63;44.94;102767.03;4978941;28;47013;-67
2021/11/06 02:56:06;;;;;;;;;8.33;8.00;;;;;17.64;44.90;102766.16;4979186;28;45151;-66
2021/11/06 02:58:32;;;;;;;;;9.00;9.00;;;;;17.62;44.69;102751.94;4979090;28;45420;-64
2021/11/06 03:00:58;;;;;;;;;7.33;7.33;;;;;17.64;44.91;102765.28;4979603;28;45802;-67
2021/11/06 03:03:23;;;;;;;;;9.67;8.00;;;;;17.64;45.05;102765.28;4978751;28;46026;-66
2021/11/06 03:05:48;;;;;;;;;9.00;9.00;;;;;17.63;45.17;102769.72;4978842;28;45348;-66
2021/11/06 03:08:14;;;;;;;;;10.67;8.67;;;;;17.63;44.85;102768.81;4978900;28;45343;-66
2021/11/06 03:10:39;;;;;;;;;10.00;9.00;;;;;17.63;44.87;102772.38;4978899;28;45548;-69
2021/11/06 03:13:05;;;;;;;;;9.33;7.67;;;;;17.64;45.01;102778.59;4978865;28;46908;-66
2021/11/06 03:15:30;;;;;;;;;8.00;8.00;;;;;17.63;44.88;102766.13;4978873;28;45292;-69
2021/11/06 03:17:56;;;;;;;;;9.00;8.00;;;;;17.63;44.73;102783.00;4979022;28;45422;-62
2021/11/06 03:20:22;;;;;;;;;9.00;7.67;;;;;17.64;44.78;102790.09;4978928;28;45162;-60
2021/11/06 03:22:49;;;;;;;;;7.33;7.33;;;;;17.64;45.02;102790.09;4978364;28;46166;-59
2021/11/06 03:25:15;;;;;;;;;9.67;8.67;;;;;17.62;44.95;102783.84;4978792;28;45182;-65
2021/11/06 03:27:40;;;;;;;;;10.00;7.00;;;;;17.62;44.79;102786.50;4978625;28;45478;-59
2021/11/06 03:30:08;;;;;;;;;12.33;9.00;;;;;17.63;44.75;102780.34;4978951;28;45324;-65
2021/11/06 03:32:34;;;;;;;;;9.00;9.00;;;;;17.62;44.87;102778.53;4978644;28;45433;-59
2021/11/06 03:34:59;;;;;;;;;8.00;8.00;;;;;17.63;44.97;102777.69;4978303;28;45705;-66
2021/11/06 03:37:25;;;;;;;;;8.67;7.00;;;;;17.63;44.87;102768.81;4978791;28;45852;-64
2021/11/06 03:39:50;;;;;;;;;9.00;9.00;;;;;17.62;44.70;102773.22;4977026;28;45300;-68
2021/11/06 03:42:16;;;;;;;;;6.33;6.33;;;;;17.62;44.72;102770.56;4978666;28;46088;-62
2021/11/06 03:44:42;;;;;;;;;6.33;6.00;;;;;17.60;44.82;102769.63;4978234;28;45376;-64
2021/11/06 03:47:07;;;;;;;;;9.00;7.00;;;;;17.60;44.70;102777.59;4978429;28;45245;-62
2021/11/06 03:49:33;;;;;;;;;9.33;8.67;;;;;17.60;44.66;102769.63;4978244;28;45316;-62
2021/11/06 03:51:58;;;;;;;;;8.33;8.00;;;;;17.61;44.63;102779.41;4978201;28;46013;-59
2021/11/06 03:54:24;;;;;;;;;6.67;6.67;;;;;17.59;44.79;102782.06;4978184;28;45242;-70
2021/11/06 03:56:49;;;;;;;;;7.00;7.00;;;;;17.60;44.89;102772.28;4978276;28;45382;-63
2021/11/06 03:59:14;;;;;;;;;9.33;8.00;;;;;17.60;44.82;102774.94;4978624;28;45166;-60
2021/11/06 04:01:40;;;;;;;;;9.00;8.33;;;;;17.61;44.74;102779.41;4977882;28;46286;-59
2021/11/06 04:04:05;;;;;;;;;8.00;8.00;;;;;17.61;45.01;102779.41;4978136;28;45528;-69
2021/11/06 04:06:32;;;;;;;;;8.33;8.33;;;;;17.61;44.81;102790.06;4978185;28;45538;-69
2021/11/06 04:08:58;;;;;;;;;8.33;8.33;;;;;17.60;44.72;102788.25;4977820;28;45327;-62
2021/11/06 04:11:24;;;;;;;;;8.00;7.00;;;;;17.60;44.92;102785.59;4978036;28;45462;-64
2021/11/06 04:13:49;;;;;;;;;7.67;7.67;;;;;17.61;44.96;102787.41;4977863;28;45490;-64
2021/11/06 04:16:15;;;;;;;;;8.00;7.67;;;;;17.60;44.78;102788.25;4978183;28;45355;-65
2021/11/06 04:18:41;;;;;;;;;6.00;6.00;;;;;17.59;44.62;102790.03;4978166;28;45406;-69
2021/11/06 04:21:07;;;;;;;;;6.67;6.00;;;;;17.59;44.63;102787.38;4977675;28;47120;-69
2021/11/06 04:23:32;;;;;;;;;9.00;8.00;;;;;17.59;44.42;102799.75;4977815;28;45371;-63
2021/11/06 04:25:58;;;;;;;;;8.33;7.33;;;;;17.60;44.51;102804.19;4977599;28;45395;-63
2021/11/06 04:28:23;;;;;;;;;8.00;8.00;;;;;17.58;44.58;102804.19;4978055;28;45469;-69
2021/11/06 04:30:49;;;;;;;;;9.33;6.67;;;;;17.59;44.64;102808.66;4977401;28;46086;-68
2021/11/06 04:33:15;;;;;;;;;8.00;8.00;;;;;17.59;44.47;102802.41;4977990;28;45200;-69
2021/11/06 04:35:41;;;;;;;;;7.33;7.33;;;;;17.59;44.59;102805.97;4977634;28;45817;-69
2021/11/06 04:38:06;;;;;;;;;10.67;7.67;;;;;17.59;44.36;102805.06;4977714;28;45334;-66
2021/11/06 04:40:31;;;;;;;;;9.00;9.00;;;;;17.59;44.44;102805.97;4977416;28;47192;-67
2021/11/06 04:42:57;;;;;;;;;8.33;6.33;;;;;17.59;44.40;102811.31;4977262;28;45333;-68
2021/11/06 04:45:22;;;;;;;;;9.00;6.67;;;;;17.60;44.65;102809.50;4977651;28;45453;-68
2021/11/06 04:47:48;;;;;;;;;9.00;9.00;;;;;17.59;44.48;102810.41;4977516;28;45410;-63
2021/11/06 04:50:13;;;;;;;;;8.33;7.67;;;;;17.59;44.62;102811.31;4977439;28;45350;-68
2021/11/06 04:52:39;;;;;;;;;6.00;6.00;;;;;17.59;44.65;102807.75;4976353;28;45399;-69
2021/11/06 04:55:07;;;;;;;;;7.00;6.67;;;;;17.58;44.43;102813.91;4977557;28;45434;-68
2021/11/06 04:57:33;;;;;;;;;10.33;9.00;;;;;17.56;44.64;102813.88;4977547;28;45217;-69
2021/11/06 04:59:58;;;;;;;;;7.33;7.00;;;;;17.57;44.49;102813.03;4976954;28;47504;-69
2021/11/06 05:02:23;;;;;;;;;8.00;7.00;;;;;17.57;44.68;102813.03;4977190;28;45481;-67
2021/11/06 05:04:49;;;;;;;;;9.33;8.00;;;;;17.56;44.52;102811.22;4977452;28;46208;-65
2021/11/06 05:07:15;;;;;;;;;10.00;9.00;;;;;17.57;44.45;102813.03;4977431;28;45253;-64
2021/11/06 05:09:43;;;;;;;;;7.67;7.67;;;;;17.57;44.59;102813.03;4976865;28;47117;-65
2021/11/06 05:12:09;;;;;;;;;10.00;9.00;;;;;17.57;44.28;102813.03;4976806;28;45407;-69
2021/11/06 05:14:35;;;;;;;;;11.00;9.67;;;;;17.57;44.45;102812.13;4977242;28;45359;-66
2021/11/06 05:17:01;;;;;;;;;8.00;8.00;;;;;17.57;44.36;102807.72;4977164;28;45387;-67
2021/11/06 05:19:26;;;;;;;;;10.33;7.67;;;;;17.56;44.55;102802.34;4976904;28;47062;-66
2021/11/06 05:21:52;;;;;;;;;9.33;9.33;;;;;17.57;44.35;102801.50;4977269;28;45428;-68
2021/11/06 05:24:17;;;;;;;;;8.33;7.00;;;;;17.56;44.30;102805.00;4977038;28;45608;-66
2021/11/06 05:26:42;;;;;;;;;10.67;7.00;;;;;17.55;44.26;102805.88;4977245;28;45228;-66
2021/11/06 05:29:09;;;;;;;;;8.33;7.00;;;;;17.55;44.57;102804.13;4976738;28;47603;-68
2021/11/06 05:31:36;;;;;;;;;7.00;7.00;;;;;17.55;44.39;102797.91;4976885;28;45308;-65
2021/11/06 05:34:03;;;;;;;;;9.67;9.00;;;;;17.53;44.25;102795.22;4976778;28;45469;-68
2021/11/06 05:36:29;;;;;;;;;9.33;8.00;;;;;17.53;44.39;102797.88;4976830;28;45351;-69
2021/11/06 05:38:55;;;;;;;;;10.00;8.00;;;;;17.54;44.35;102799.66;4976484;28;46080;-69
2021/11/06 05:41:21;;;;;;;;;10.67;8.00;;;;;17.54;44.42;102791.69;4976542;28;45475;-69
2021/11/06 05:43:46;;;;;;;;;8.00;8.00;;;;;17.55;44.43;102792.59;4976887;28;45366;-69
2021/11/06 05:46:12;;;;;;;;;8.33;8.33;;;;;17.55;44.62;102784.59;4976820;28;45466;-67
2021/11/06 05:48:38;;;;;;;;;9.33;8.00;;;;;17.53;44.28;102789.00;4976601;28;46268;-63
2021/11/06 05:51:03;;;;;;;;;10.00;10.00;;;;;17.54;44.42;102796.09;4976718;28;45281;-65
2021/11/06 05:53:29;;;;;;;;;9.00;8.67;;;;;17.54;44.32;102796.09;4976530;28;45415;-65
2021/11/06 05:55:54;;;;;;;;;9.00;8.00;;;;;17.53;44.36;102797.88;4976773;28;45149;-69
2021/11/06 05:58:20;;;;;;;;;8.00;8.00;;;;;17.54;44.59;102802.31;4976541;28;47273;-67
2021/11/06 06:00:45;;;;;;;;;8.00;8.00;;;;;17.55;44.34;102808.53;4976728;28;45299;-66
2021/11/06 06:03:11;;;;;;;;;10.33;9.00;;;;;17.55;44.45;102800.56;4977268;28;45311;-66
2021/11/06 06:05:36;;;;;;;;;8.00;8.00;;;;;17.54;44.30;102810.28;4980280;28;45224;-69
2021/11/06 06:08:02;;;;;;;;;8.33;8.33;;;;;17.54;44.39;102807.63;4979621;28;46414;-66
2021/11/06 06:10:27;;;;;;;;;9.00;9.00;;;;;17.54;44.39;102817.38;4979557;28;45272;-60
2021/11/06 06:12:53;;;;;;;;;8.33;7.00;;;;;17.54;44.30;102817.38;4979815;28;45481;-68
2021/11/06 06:15:23;;;;;;;;;8.67;8.00;;;;;17.55;44.15;102813.84;4980015;28;45482;-67
2021/11/06 06:17:50;;;;;;;;;9.00;8.67;;;;;17.54;44.14;102814.72;4979794;28;47041;-67
2021/11/06 06:20:16;;;;;;;;;9.00;9.00;;;;;17.54;44.21;102822.69;4979600;28;45292;-69
2021/11/06 06:22:42;;;;;;;;;10.67;9.33;;;;;17.53;44.17;102831.53;4980039;28;45337;-60
2021/11/06 06:25:10;;;;;;;;;7.33;7.33;;;;;17.53;44.38;102820.91;4979776;28;45697;-60
2021/11/06 06:27:36;;;;;;;;;7.00;7.00;;;;;17.54;44.42;102828.00;4979150;28;46992;-62
2021/11/06 06:30:06;;;;;;;;;5.67;5.67;;;;;17.54;44.54;102833.31;4979339;28;45253;-69
2021/11/06 06:32:32;;;;;;;;;9.00;9.00;;;;;17.55;44.37;102829.81;4979619;28;45814;-69
2021/11/06 06:34:57;;;;;;;;;9.33;9.00;;;;;17.54;44.49;102834.22;4979587;28;45346;-69
2021/11/06 06:37:24;;;;;;;;;9.67;9.67;;;;;17.56;44.62;102842.22;4994486;28;46165;-66
2021/11/06 06:39:49;;;;;;;;;8.67;7.00;;;;;17.55;44.75;102841.34;4979312;28;45402;-66
2021/11/06 06:42:15;;;;;;;;;10.33;9.00;;;;;17.57;44.68;102847.59;4979410;28;45470;-70
2021/11/06 06:44:40;;;;;;;;;8.00;6.00;;;;;17.57;44.27;102852.00;4979532;28;45253;-69
2021/11/06 06:47:06;;;;;;;;;8.33;8.33;;;;;17.56;44.77;102845.78;4979370;28;45417;-70
2021/11/06 06:49:31;;;;;;;;;8.00;7.67;;;;;17.57;44.75;102844.94;4979073;28;45413;-70
2021/11/06 06:51:56;;;;;;;;;11.33;9.00;;;;;17.58;45.07;102845.81;4979354;28;45323;-70
2021/11/06 06:54:23;;;;;;;;;9.33;8.33;;;;;17.60;45.10;102846.75;4979416;28;45370;-70
2021/11/06 06:56:49;;;;;;;;;9.00;9.00;;;;;17.61;45.20;102843.25;4979050;28;45995;-59
2021/11/06 06:59:15;;;;;;;;;10.67;9.67;;;;;17.63;45.16;102853.91;4979290;28;45375;-66
2021/11/06 07:01:40;;;;;;;;;8.00;7.67;;;;;17.65;45.47;102844.19;4978873;28;45311;-69
2021/11/06 07:04:06;;;;;;;;;7.00;7.00;;;;;17.66;45.49;102844.22;4979214;28;45498;-66
2021/11/06 07:06:31;;;;;;;;;9.00;9.00;;;;;17.72;45.44;102854.13;4978844;28;47334;-66
2021/11/06 07:09:00;;;;;;;;;7.33;7.33;;;;;17.73;45.55;102847.00;4978790;28;45234;-63
2021/11/06 07:11:26;;;;;;;;;9.33;8.00;;;;;17.76;45.79;102847.09;4978803;28;45378;-69
2021/11/06 07:13:52;;;;;;;;;9.67;7.67;;;;;17.77;45.10;102840.88;4978923;28;45391;-65
2021/11/06 07:16:18;;;;;;;;;9.67;9.00;;;;;17.79;45.47;102853.38;4977605;28;47165;-60
2021/11/06 07:18:43;;;;;;;;;11.67;9.67;;;;;17.81;45.59;102853.38;4978536;28;45414;-59
2021/11/06 07:21:09;;;;;;;;;8.00;8.00;;;;;17.83;45.71;102852.56;4978966;28;45696;-59
2021/11/06 07:23:34;;;;;;;;;8.67;8.67;;;;;17.86;45.65;102862.38;4978856;28;45549;-59
2021/11/06 07:26:01;;;;;;;;;11.67;11.00;;;;;17.87;45.56;102849.97;4978579;28;46149;-62
2021/11/06 07:28:28;;;;;;;;;11.00;9.67;;;;;17.90;45.49;102847.38;4978682;28;45300;-60
2021/11/06 07:30:53;;;;;;;;;12.00;10.67;;;;;17.92;45.70;102845.63;4978219;28;45343;-63
2021/11/06 07:33:18;;;;;;;;;15.00;11.67;;;;;17.93;45.51;102845.69;4977186;28;45612;-60
2021/11/06 07:35:44;;;;;;;;;14.33;12.67;;;;;17.95;45.37;102845.72;4978387;28;45422;-61
2021/11/06 07:38:09;;;;;;;;;9.67;9.67;;;;;17.96;45.73;102847.50;4978034;28;45399;-61
2021/11/06 07:40:35;;;;;;;;;12.00;12.00;;;;;17.98;45.63;102850.22;4978280;28;45780;-60
2021/11/06 07:43:02;;;;;;;;;14.33;11.00;;;;;17.98;45.68;102851.09;4978550;28;45423;-60
2021/11/06 07:45:27;;;;;;;;;14.00;12.67;;;;;18.01;45.71;102850.25;4978045;28;46499;-61
2021/11/06 07:47:53;;;;;;;;;13.33;12.00;;;;;18.04;45.60;102850.34;4977967;28;45217;-62
2021/11/06 07:50:18;;;;;;;;;13.00;12.00;;;;;18.04;45.86;102848.53;4978025;28;45272;-59
2021/11/06 07:52:44;;;;;;;;;15.00;13.33;;;;;18.05;45.73;102849.44;4978524;28;45401;-60
2021/11/06 07:55:09;;;;;;;;;15.00;10.00;;;;;18.06;45.54;102844.16;4977986;28;46137;-59
2021/11/06 07:57:35;;;;;;;;;12.67;11.67;;;;;18.08;45.58;102852.19;4977756;28;45237;-62
2021/11/06 08:00:03;;;;;;;;;14.33;14.33;;;;;18.09;45.63;102855.72;4977893;28;45415;-60
2021/11/06 08:02:29;;;;;;;;;13.00;11.67;;;;;18.09;45.33;102853.97;4978086;28;45424;-63
2021/11/06 08:04:54;;;;;;;;;14.67;12.67;;;;;18.11;45.40;102862.88;4977691;28;46238;-59
2021/11/06 08:07:20;;;;;;;;;13.00;11.33;;;;;18.11;45.63;102862.88;4977840;28;45454;-64
2021/11/06 08:09:45;;;;;;;;;15.00;11.33;;;;;18.13;45.74;102858.47;4977513;28;45529;-60
2021/11/06 08:12:10;;;;;;;;;13.00;11.67;;;;;18.14;45.54;102865.63;4977804;28;45292;-62
2021/11/06 08:14:36;;;;;;;;;14.00;11.00;;;;;18.15;45.62;102867.41;4977611;28;46981;-65
2021/11/06 08:17:02;;;;;;;;;9.33;9.00;;;;;18.16;45.58;102866.53;4977863;28;45380;-64
2021/11/06 08:19:28;;;;;;;;;14.00;11.33;;;;;18.19;45.57;102864.84;4977440;28;45311;-60
2021/11/06 08:21:55;;;;;;;;;18.00;12.67;;;;;18.17;45.38;102863.03;4977660;28;45435;-59
2021/11/06 08:24:22;;;;;;;;;13.67;12.33;;;;;18.19;45.57;102859.53;4977572;28;46226;-59
2021/11/06 08:26:47;;;;;;;;;17.00;13.00;;;;;18.20;45.63;102870.19;4977520;28;45588;-59
2021/11/06 08:29:14;;;;;;;;;11.00;9.33;;;;;18.21;45.73;102871.09;4977734;28;45426;-59
2021/11/06 08:31:40;;;;;;;;;11.67;10.33;;;;;18.22;45.70;102870.22;4977500;28;45514;-65
2021/11/06 08:34:05;;;;;;;;;13.33;10.67;;;;;18.23;45.58;102867.56;4977382;28;46098;-61
2021/11/06 08:36:31;;;;;;;;;10.67;8.67;;;;;18.23;45.46;102867.56;4976863;28;45338;-66
2021/11/06 08:38:56;;;;;;;;;11.00;10.33;;;;;18.24;45.71;102858.72;4977539;28;45384;-68
2021/11/06 08:41:22;;;;;;;;;11.00;8.33;;;;;18.25;45.53;102859.63;4977822;28;45477;-66
2021/11/06 08:43:47;;;;;;;;;12.67;10.00;;;;;18.27;45.59;102860.56;4977305;28;45906;-61
2021/11/06 08:46:13;;;;;;;;;12.33;9.67;;;;;18.27;45.57;102856.13;4977715;28;45256;-68
2021/11/06 08:48:38;;;;;;;;;13.00;11.00;;;;;18.28;45.61;102852.59;4977237;28;45809;-63
2021/11/06 08:51:04;;;;;;;;;10.00;10.00;;;;;18.29;45.62;102848.19;4977450;28;45305;-68
2021/11/06 08:53:30;;;;;;;;;12.00;10.00;;;;;18.30;45.72;102841.97;4977207;28;46937;-66
2021/11/06 08:55:55;;;;;;;;;11.67;10.00;;;;;18.32;45.55;102844.69;4977061;28;45272;-68
2021/11/06 08:58:20;;;;;;;;;9.33;8.67;;;;;18.32;45.52;102848.22;4977345;28;45471;-69
2021/11/06 09:00:48;;;;;;;;;11.00;9.00;;;;;18.33;45.72;102852.69;4977204;28;45289;-66
2021/11/06 09:03:19;;;;;;;;;12.00;10.00;;;;;18.34;45.61;102859.78;4977245;28;46280;-65
2021/11/06 09:05:50;;;;;;;;;10.33;8.00;;;;;18.36;45.73;102857.19;4977311;28;45410;-69
2021/11/06 09:08:17;;;;;;;;;15.00;9.00;;;;;18.36;45.62;102858.06;4977014;28;45472;-64
2021/11/06 09:10:43;;;;;;;;;10.00;10.00;;;;;18.37;45.61;102857.22;4977372;28;45308;-69
2021/11/06 09:13:08;;;;;;;;;9.00;7.00;;;;;18.39;45.61;102858.13;4976595;28;47337;-69
2021/11/06 09:15:34;;;;;;;;;7.00;7.00;;;;;18.39;45.57;102860.78;4976928;28;45464;-67
2021/11/06 09:17:59;;;;;;;;;9.33;8.00;;;;;18.40;45.77;102851.94;4977033;28;45321;-68
2021/11/06 09:20:25;;;;;;;;;9.67;9.67;;;;;18.42;45.68;102861.72;4975944;28;45473;-67
2021/11/06 09:22:51;;;;;;;;;8.67;8.00;;;;;18.42;45.35;102862.63;4976764;28;46891;-69
2021/11/06 09:25:18;;;;;;;;;9.00;7.00;;;;;18.43;45.66;102863.50;4977014;28;45339;-59
2021/11/06 09:27:43;;;;;;;;;9.00;8.33;;;;;18.43;45.68;102859.06;4976847;28;45461;-67
2021/11/06 09:30:10;;;;;;;;;9.00;8.00;;;;;18.44;45.50;102860.88;4977019;28;45384;-69
2021/11/06 09:32:36;;;;;;;;;8.67;7.67;;;;;18.45;45.51;102861.75;4976661;28;46378;-68
2021/11/06 09:35:02;;;;;;;;;10.67;9.00;;;;;18.46;45.30;102863.56;4975954;28;45471;-67
2021/11/06 09:37:27;;;;;;;;;9.67;7.00;;;;;18.46;45.66;102868.91;4976665;28;45352;-68
2021/11/06 09:39:54;;;;;;;;;9.00;7.00;;;;;18.46;45.51;102860.91;4980173;28;45465;-64
2021/11/06 09:42:20;;;;;;;;;9.67;7.00;;;;;18.47;45.46;102857.38;4980088;28;46253;-66
2021/11/06 09:44:49;;;;;;;;;7.00;7.00;;;;;18.47;45.73;102854.69;4979972;28;45326;-63
2021/11/06 09:47:15;;;;;;;;;11.67;8.33;;;;;18.48;45.06;102854.75;4980282;28;45391;-64
2021/11/06 09:49:41;;;;;;;;;7.33;7.00;;;;;18.48;44.88;102853.84;4979969;28;45513;-60
2021/11/06 09:52:07;;;;;;;;;9.00;7.00;;;;;18.45;44.62;102861.75;4979850;28;45436;-67
2021/11/06 09:54:33;;;;;;;;;5.67;5.67;;;;;18.44;45.23;102862.66;4980041;28;45343;-67
2021/11/06 09:56:59;;;;;;;;;8.00;8.00;;;;;18.44;44.99;102854.66;4979845;28;45395;-62
2021/11/06 09:59:25;;;;;;;;;9.67;7.00;;;;;18.46;45.39;102847.59;4979900;28;45260;-59
2021/11/06 10:01:51;;;;;;;;;8.33;6.00;;;;;18.46;45.25;102853.81;4979289;28;46253;-62
2021/11/06 10:04:16;;;;;;;;;12.33;8.67;;;;;18.47;45.39;102850.28;4979784;28;45319;-68
2021/11/06 10:06:45;;;;;;;;;6.33;6.00;;;;;18.49;45.59;102852.97;4979923;28;45371;-60
2021/11/06 10:09:13;;;;;;;;;7.00;5.33;;;;;18.50;45.59;102854.78;4979935;28;45311;-59
2021/11/06 10:11:43;;;;;;;;;9.67;9.67;;;;;18.51;45.26;102856.53;4979203;28;47236;-67
2021/11/06 10:14:13;;;;;;;;;6.67;6.67;;;;;18.52;45.26;102855.69;4979406;28;45391;-63
2021/11/06 10:16:55;;;;;;;;;7.00;6.67;;;;;18.53;45.36;102852.16;4979888;28;45354;-64
2021/11/06 10:19:29;;;;;;;;;6.00;6.00;;;;;18.55;45.33;102857.53;4979639;28;45382;-67
2021/11/06 10:22:15;;;;;;;;;8.00;7.00;;;;;18.57;45.55;102847.78;4979100;28;46080;-70
2021/11/06 10:24:51;;;;;;;;;8.00;7.00;;;;;18.57;45.61;102832.69;4979360;28;45465;-66
2021/11/06 10:27:18;;;;;;;;;7.67;7.33;;;;;18.58;45.53;102842.50;4979584;28;45470;-68
2021/11/06 10:29:59;;;;;;;;;8.00;6.67;;;;;18.58;45.77;102842.50;4979481;28;45379;-70
2021/11/06 10:32:24;;;;;;;;;8.67;6.67;;;;;18.59;45.46;102841.59;4978383;28;46100;-70
2021/11/06 10:34:52;;;;;;;;;7.33;5.33;;;;;18.61;45.34;102836.31;4979046;28;45379;-62
2021/11/06 10:37:20;;;;;;;;;8.67;7.00;;;;;18.61;45.69;102831.00;4979384;28;45305;-68
2021/11/06 10:39:57;;;;;;;;;5.33;5.33;;;;;18.62;45.90;102839.00;4979562;28;45395;-65
2021/11/06 10:42:23;;;;;;;;;7.33;5.67;;;;;18.62;45.78;102839.00;4978876;28;46245;-63
2021/11/06 10:44:49;;;;;;;;;7.00;6.00;;;;;18.63;45.72;102832.78;4979256;28;45438;-65
2021/11/06 10:47:14;;;;;;;;;9.67;6.33;;;;;18.62;45.60;102820.34;4979249;28;45406;-68
2021/11/06 10:49:48;;;;;;;;;9.00;7.33;;;;;18.65;45.36;102826.59;4977678;28;45466;-68
2021/11/06 10:52:16;;;;;;;;;7.33;5.33;;;;;18.66;45.48;102828.38;4979084;28;45344;-62
2021/11/06 10:55:17;;;;;;;;;7.00;6.33;;;;;18.66;45.90;102823.06;4979046;28;45404;-66
2021/11/06 10:57:43;;;;;;;;;7.00;6.00;;;;;18.67;45.83;102819.53;4977161;28;45367;-63
2021/11/06 11:00:11;;;;;;;;;6.67;6.67;;;;;18.67;45.67;102816.88;4976907;28;45509;-60
2021/11/06 11:02:37;;;;;;;;;6.00;6.00;;;;;18.67;45.64;102815.13;4976642;28;46408;-69
2021/11/06 11:05:05;;;;;;;;;5.00;5.00;;;;;18.68;45.92;102823.97;4976524;28;45369;-65
2021/11/06 11:07:30;;;;;;;;;4.33;4.33;;;;;18.69;45.67;102817.78;4976810;28;45312;-70
2021/11/06 11:09:56;;;;;;;;;6.00;6.00;;;;;18.70;45.67;102815.16;4976671;28;45932;-68
2021/11/06 11:12:22;;;;;;;;;8.67;5.67;;;;;18.69;45.91;102813.38;4976354;28;46933;-64
2021/11/06 11:14:55;;;;;;;;;6.33;5.33;;;;;18.71;45.72;102808.06;4976632;28;45557;-68
2021/11/06 11:17:40;;;;;;;;;7.00;6.00;;;;;18.71;45.82;102808.06;4976449;28;45375;-67